Terminal Aerodrome Forecast
Issued by NWS

Home | Current Version | Previous Version | Text Only | Print | Product List | Glossary Off
Versions: 1 2 3 4 5 6 7 8 9 10 11 12 13 14 15 16

000
FTUS45 KGGW 251700
TAFSDY
TAF
KSDY 251728Z 2518/2618 31010KT P6SM OVC020
     FM260000 34010KT P6SM BKN015 BKN200
     FM260600 VRB06KT P6SM SCT015 SCT200
     FM261500 VRB05KT P6SM FEW015 BKN150
      AMD LTD TO CLD VIS AND WIND=

USA.gov is the U.S. government's official web portal to all federal, state and local government web resources and services.